Airfield :
LOGIN :

Register | Disclaimer

   EN    FR    IT 

 










Legend :    VFR   Marginal VFR   IFR   Intensive IFR   Very Intensive IFR
Visi :
Ceiling :
>= 8 km
>= 3000ft
5 to 8 km
1000 to 3000 ft
1500m to 5 km
500 to 1000 ft
800 to 1500m
200 to 500 ft
< 800m
< 200 ft
Symbols :   Thunderstorms  Fog  Heavy snow  Heavy precipitations  Wind > 20 kt
SIGMETs :     Misc.  Thunderstorms  Icing  Turbulence  Mountain Waves  Volcanic Ashes






- Airport Elevation : 1339 ft


ETHN - Niederstetten

CURRENT METAR :
  • 271620Z VRB01KT 9999 FEW020CB BKN040 BKN080 16/11 Q1016 BLU

EXPIRED METARs :
  • 271520Z 05003KT 9999 FEW020CB SCT060 BKN140 16/11 Q1016 BLU FCST CNL
  • 271420Z 18006KT 9999 VCSH FEW025CB SCT040 BKN090 19/15 Q1016 BLU BLU TEMPO WHT
  • 271320Z 21004KT 9999 FEW025CB SCT040 BKN090 19/13 Q1017 BLU BLU TEMPO WHT
  • 271220Z 16004KT 9999 FEW024 SCT060 BKN090 19/13 Q1018 BLU BLU TEMPO WHT

TAF TAF ETHN
Valid from the 27 at 14:00 until the 27 at 23:00 UTC


271300Z 2714/2723 18005KT 9999 NSW SCT020 BKN080
TEMPO 2714/2723 22010G20KT 5000 SHRA BKN020CB
PROB30 2714/2720 VRB15G30KT 2000 TSRA SCT012 BKN015CB



MET'MAP, your aeronautical weather chart ! - Copyright ORBIFLY December 2007 - Disclaimer

ORBIFLY MET'MAP TEAM :

Programming & Development : Alexandra Zaïnal
Original concept : Baudouin d'Aumeries
Technical & hardware support : Manuel Goepfert
Assistance : Marc-Olivier Méhu




SOURCES & CREDITS :

   NOAA